Aérodrome :
LOGIN :

S'inscrire | Disclaimer

   EN    FR    IT 

 










Légende :    VFR   VFR Marginal   IFR   IFR Intensif   IFR Très Intensif
Visi : 
Plafond : 
>= 8 km
>= 3000ft
5 à 8 km
1000 à 3000 ft
1500m à 5 km
500 à 1000 ft
800 à 1500m
200 à 500 ft
< 800m
< 200 ft
Symboles :   Orages  Brouillard  Fortes neiges  Fortes précipitations  Vent > 20 kt
SIGMETs :   Divers  Orages  Givrage  Turbulence  Onde Orograph.  Cendres Volcan.







- Altitude de l'aérodrome : 309 ft
- Code IATA : FNI
- Voir les cartes d'approche


LFTW - Nîmes Garons

DERNIER METAR :
  • 230330Z AUTO 32007KT CAVOK 21/12 Q1013 NOSIG

METARs EXPIRÉS :
  • 230300Z AUTO 32006KT CAVOK 21/11 Q1013 NOSIG
  • 230230Z AUTO 32008KT 290V350 CAVOK 22/11 Q1013 NOSIG
  • 230200Z AUTO 32007KT CAVOK 22/11 Q1013
  • 230130Z AUTO 31005KT CAVOK 22/12 Q1013
  • 230100Z AUTO 29004KT 240V330 CAVOK 21/11 Q1013

TAF TAF LFTW
Valide du 23 à 03h jusqu'au 24 à 03h UTC


230200Z 2303/2403 32010KT CAVOK
TEMPO 2308/2312 35010G25KT
Pas de NOTAMs connus pour ce terrain.
1 SIGMET publié pour la FIR Marseille (LFMM) :
 
Orages noyés dans la masse
LFMM SIGMET 1 VALID 230000/230400 LFPW
LFMM MARSEILLE FIR/UIR EMBD TS OBS AT 0000Z WI N4315 E00915 - N4315 E00945 - N4145 E00945 - N4200 E00715 - N4315 E00730 - N4315 E00915 TOP FL380 MOV S 10KT NC=



MET'MAP, la Météo Aéronautique d'un coup d'oeil ! - Copyright ORBIFLY Décembre 2007 - Disclaimer

ORBIFLY MET'MAP TEAM :

Programmation & Développement : Alexandra Zaïnal
Conception & Développement : Baudouin d'Aumeries
Co-Programmation & Développement : Marc-Olivier Méhu
Soutien technique & logistique : Manuel Goepfert

Contact : metmap@orbifly.com




SOURCES & CREDITS :

   NOAA